< < Back
Terminal Aerodrome Forecast


Current Version              Previous Versions:   1  2  3  4  5  6  7  8  9  

Terminal Aerodrome Forecast

766
FTUS44 KMRX 240522
TAFCHA
TAF
KCHA 240522Z 2406/2506 00000KT P6SM SCT150 BKN250
     FM241900 23004KT P6SM VCTS SCT050CB BKN150
     FM250100 00000KT P6SM FEW060=

Latest METAR

787
SAUS80 KWBC 250600 RRA
MTRCHA
METAR KCHA 250553Z AUTO 00000KT 10SM CLR 25/23 A3002 RMK AO2 SLP157
T02500228 10294 20250 58009 $


USA.gov is the U.S. government's official web portal to all federal, state and local government web resources and services.